Airfield :
LOGIN :

Register | Disclaimer

   EN    FR    IT 

 










Legend :    VFR   Marginal VFR   IFR   Intensive IFR   Very Intensive IFR
Visi :
Ceiling :
>= 8 km
>= 3000ft
5 to 8 km
1000 to 3000 ft
1500m to 5 km
500 to 1000 ft
800 to 1500m
200 to 500 ft
< 800m
< 200 ft
Symbols :   Thunderstorms  Fog  Heavy snow  Heavy precipitations  Wind > 20 kt
SIGMETs :     Misc.  Thunderstorms  Icing  Turbulence  Mountain Waves  Volcanic Ashes







- Airport Elevation : 70 ft
- IATA code : WBG


ETNS - Schleswig

CURRENT METAR :
  • 170920Z 23017KT 9999 BKN016 14/11 Q1017 WHT BLU+ TEMPO WHT

EXPIRED METARs :
  • 170849Z 23014KT 9999 BKN017 BKN240 14/11 Q1017 WHT BLU+ TEMPO WHT
  • 170835Z 23015KT 9999 SCT017 BKN240 14/11 Q1017 BLU+BLU+ TEMPO WHT
  • 170820Z 23015KT 9999 BKN018 BKN240 14/11 Q1017 WHT BLU+ TEMPO WHT
  • 170809Z 23014KT 9999 BKN019 BKN240 14/11 Q1017 WHT BLU+ TEMPO WHT
  • 170720Z 23012KT 9999 SCT020 BKN240 14/11 Q1017 BLU+BLU+ TEMPO BLU

TAF COR TAF ETNS
Valid from the 17 at 08:00 until the 17 at 17:00 UTC


170735Z 1708/1717 22015KT 9999 NSW SCT020 SCT150
TEMPO 1708/1715 23020G30KT 9999 NSW BKN020 BY ETGL
No reported NOTAMs for that airfield.



MET'MAP, your aeronautical weather chart ! - Copyright ORBIFLY December 2007 - Disclaimer

ORBIFLY MET'MAP TEAM :

Programming & Development : Alexandra Zaïnal
Concept & Development : Baudouin d'Aumeries
Co-Development & Prog : Marc-Olivier Méhu
Technical & hardware support : Manuel Goepfert

Contact : metmap@orbifly.com




SOURCES & CREDITS :

   NOAA